Time;durP1;ratioP1;P1;durP2;ratioP2;P2;SDS_P1;SDS_P2;PMS_P1;PMS_P2;Temp;Humidity;BMP_temperature;BMP_pressure;BME280_temperature;BME280_humidity;BME280_pressure;Samples;Min_cycle;Max_cycle;Signal;HPM_P1;HPM_P2
2022/05/15 00:03:07;;;;;;;15.48;7.43;;;;;;;;;;10334555;28;20525;-75
2022/05/15 00:08:10;;;;;;;18.55;7.43;;;;;;;;;;10358353;28;20050;-76
2022/05/15 00:13:14;;;;;;;15.63;7.22;;;;;;;;;;10355988;28;20455;-76
2022/05/15 00:18:18;;;;;;;18.33;7.53;;;;;;;;;;10343622;28;20469;-74
2022/05/15 00:23:21;;;;;;;16.20;7.47;;;;;;;;;;10339547;28;20193;-75
2022/05/15 00:28:25;;;;;;;15.15;8.02;;;;;;;;;;10355706;28;20034;-75
2022/05/15 00:33:28;;;;;;;17.23;8.25;;;;;;;;;;10360178;28;20084;-75
2022/05/15 00:38:31;;;;;;;14.90;7.07;;;;;;;;;;10354393;28;20038;-74
2022/05/15 00:43:37;;;;;;;25.60;10.80;;;;;;;;;;10343690;28;20365;-75
2022/05/15 00:48:40;;;;;;;16.10;7.63;;;;;;;;;;10334285;28;20038;-75
2022/05/15 00:53:43;;;;;;;19.53;7.47;;;;;;;;;;10352707;28;20038;-75
2022/05/15 00:58:50;;;;;;;13.27;7.07;;;;;;;;;;10360922;28;20521;-75
2022/05/15 01:03:53;;;;;;;13.32;7.13;;;;;;;;;;10356613;28;20038;-73
2022/05/15 01:08:55;;;;;;;20.15;7.88;;;;;;;;;;10353200;28;20041;-75
2022/05/15 01:14:00;;;;;;;14.30;7.70;;;;;;;;;;10356925;28;20082;-76
2022/05/15 01:19:14;;;;;;;13.70;7.85;;;;;;;;;;10338657;28;20034;-76
2022/05/15 01:24:19;;;;;;;17.05;8.50;;;;;;;;;;10364609;28;20097;-76
2022/05/15 01:29:28;;;;;;;16.10;8.70;;;;;;;;;;10356743;28;20034;-76
2022/05/15 01:34:38;;;;;;;17.37;8.63;;;;;;;;;;10339535;28;20033;-74
2022/05/15 01:39:42;;;;;;;17.40;7.78;;;;;;;;;;10361055;28;20049;-74
2022/05/15 01:44:45;;;;;;;26.60;9.10;;;;;;;;;;10349460;28;20044;-76
2022/05/15 01:49:48;;;;;;;16.42;8.27;;;;;;;;;;10347927;28;20122;-75
2022/05/15 01:54:52;;;;;;;14.33;7.90;;;;;;;;;;10358443;28;20120;-74
2022/05/15 01:59:55;;;;;;;14.52;8.00;;;;;;;;;;10342390;28;20574;-76
2022/05/15 02:04:58;;;;;;;17.17;8.00;;;;;;;;;;10342048;28;20046;-76
2022/05/15 02:10:02;;;;;;;13.10;7.28;;;;;;;;;;10338978;28;20453;-75
2022/05/15 02:15:06;;;;;;;15.88;7.70;;;;;;;;;;10355755;28;20041;-75
2022/05/15 02:20:11;;;;;;;16.65;8.10;;;;;;;;;;10352720;28;20026;-75
2022/05/15 02:25:16;;;;;;;18.50;8.52;;;;;;;;;;10360715;28;20563;-75
2022/05/15 02:30:20;;;;;;;16.73;8.10;;;;;;;;;;10360508;28;20117;-77
2022/05/15 02:35:23;;;;;;;16.13;8.32;;;;;;;;;;10334211;28;20038;-76
2022/05/15 02:40:28;;;;;;;16.63;8.40;;;;;;;;;;10362990;28;20073;-76
2022/05/15 02:45:30;;;;;;;17.52;8.00;;;;;;;;;;10357717;28;20136;-76
2022/05/15 02:55:55;;;;;;;18.88;7.32;;;;;;;;;;10353880;28;20043;-77
2022/05/15 03:00:58;;;;;;;16.98;8.32;;;;;;;;;;10363811;28;20048;-76
2022/05/15 03:06:01;;;;;;;18.43;8.37;;;;;;;;;;10356874;28;20069;-76
2022/05/15 03:11:05;;;;;;;17.23;7.78;;;;;;;;;;10363909;28;20089;-76
2022/05/15 03:16:08;;;;;;;14.65;8.00;;;;;;;;;;10355163;28;20587;-76
2022/05/15 03:21:13;;;;;;;18.00;7.65;;;;;;;;;;10346759;28;20463;-76
2022/05/15 03:26:17;;;;;;;18.17;8.23;;;;;;;;;;10353907;28;20038;-76
2022/05/15 03:31:20;;;;;;;16.42;7.63;;;;;;;;;;10350200;28;20428;-76
2022/05/15 03:36:23;;;;;;;20.47;8.73;;;;;;;;;;10360396;28;20034;-75
2022/05/15 03:41:27;;;;;;;16.95;8.10;;;;;;;;;;10336626;28;20080;-75
2022/05/15 03:46:30;;;;;;;14.73;7.55;;;;;;;;;;10340776;28;20518;-76
2022/05/15 03:51:34;;;;;;;17.05;8.00;;;;;;;;;;10358544;28;20088;-76
2022/05/15 03:56:53;;;;;;;23.93;12.43;;;;;;;;;;10332839;28;20120;-76
2022/05/15 04:01:56;;;;;;;19.20;9.73;;;;;;;;;;10353057;28;20385;-76
2022/05/15 04:07:00;;;;;;;14.05;8.10;;;;;;;;;;10354486;28;20315;-76
2022/05/15 04:12:04;;;;;;;14.93;7.43;;;;;;;;;;10356438;28;20030;-76
2022/05/15 04:17:08;;;;;;;15.73;7.47;;;;;;;;;;10356037;28;20121;-74
2022/05/15 04:22:11;;;;;;;13.88;7.10;;;;;;;;;;10360495;28;20070;-76
2022/05/15 04:27:15;;;;;;;12.70;7.00;;;;;;;;;;10358027;28;20561;-76
2022/05/15 04:32:18;;;;;;;20.80;9.55;;;;;;;;;;10357154;28;20034;-74
2022/05/15 04:37:22;;;;;;;16.77;8.40;;;;;;;;;;10357702;28;20037;-74
2022/05/15 04:42:26;;;;;;;14.52;7.70;;;;;;;;;;10353635;28;20109;-75
2022/05/15 04:47:29;;;;;;;16.05;7.13;;;;;;;;;;10346491;28;20037;-75
2022/05/15 04:52:37;;;;;;;18.90;7.40;;;;;;;;;;10362615;28;20038;-74
2022/05/15 04:57:41;;;;;;;12.48;6.82;;;;;;;;;;10370812;28;20080;-75
2022/05/15 05:02:43;;;;;;;9.65;5.40;;;;;;;;;;10372825;28;20041;-75
2022/05/15 05:07:47;;;;;;;14.47;6.83;;;;;;;;;;10351407;28;20054;-76
2022/05/15 05:12:51;;;;;;;12.00;6.07;;;;;;;;;;10347761;28;20130;-74
2022/05/15 05:17:56;;;;;;;15.88;7.30;;;;;;;;;;10363971;28;20382;-75
2022/05/15 05:22:59;;;;;;;12.33;7.10;;;;;;;;;;10340158;28;20065;-75
2022/05/15 05:28:04;;;;;;;12.43;6.77;;;;;;;;;;10353919;28;20061;-75
2022/05/15 05:33:07;;;;;;;12.02;6.63;;;;;;;;;;10358610;28;20602;-76
2022/05/15 05:38:10;;;;;;;13.70;7.75;;;;;;;;;;10360528;28;20123;-76
2022/05/15 05:43:14;;;;;;;11.35;7.28;;;;;;;;;;10359608;28;20037;-75
2022/05/15 05:48:17;;;;;;;13.77;7.07;;;;;;;;;;10339025;28;20069;-76
2022/05/15 05:53:20;;;;;;;14.18;7.72;;;;;;;;;;10360508;28;20128;-76
2022/05/15 05:58:24;;;;;;;11.73;6.47;;;;;;;;;;10366660;28;20453;-78
2022/05/15 06:08:47;;;;;;;11.82;6.07;;;;;;;;;;10356223;28;20464;-75
2022/05/15 06:13:51;;;;;;;9.70;5.30;;;;;;;;;;10361281;28;20042;-78
2022/05/15 06:18:54;;;;;;;9.52;4.80;;;;;;;;;;10354161;28;20480;-76
2022/05/15 06:23:58;;;;;;;10.23;4.38;;;;;;;;;;10356705;28;20075;-76
2022/05/15 06:29:03;;;;;;;7.47;4.07;;;;;;;;;;10363552;28;20045;-77
2022/05/15 06:34:06;;;;;;;7.22;4.60;;;;;;;;;;10356711;28;20085;-77
2022/05/15 06:39:09;;;;;;;6.37;4.33;;;;;;;;;;10338804;28;20557;-77
2022/05/15 06:44:13;;;;;;;11.37;4.53;;;;;;;;;;10356676;28;20141;-78
2022/05/15 06:49:16;;;;;;;16.70;7.22;;;;;;;;;;10352127;28;20133;-78
2022/05/15 06:54:19;;;;;;;7.93;4.05;;;;;;;;;;10338292;28;20053;-77
2022/05/15 06:59:23;;;;;;;8.15;4.50;;;;;;;;;;10363217;28;20048;-75
2022/05/15 07:04:26;;;;;;;8.77;4.15;;;;;;;;;;10361532;28;20061;-76
2022/05/15 07:09:29;;;;;;;7.23;4.13;;;;;;;;;;10366679;28;20103;-77
2022/05/15 07:14:34;;;;;;;7.07;3.97;;;;;;;;;;10365800;28;20377;-75
2022/05/15 07:19:37;;;;;;;11.95;4.20;;;;;;;;;;10347416;28;20065;-79
2022/05/15 07:24:40;;;;;;;6.27;3.90;;;;;;;;;;10346703;28;20046;-75
2022/05/15 07:29:44;;;;;;;15.35;4.45;;;;;;;;;;10364438;28;20026;-78
2022/05/15 07:34:47;;;;;;;7.57;4.75;;;;;;;;;;10368449;28;20076;-77
2022/05/15 07:39:49;;;;;;;7.38;4.65;;;;;;;;;;10339737;28;20132;-77
2022/05/15 07:44:57;;;;;;;6.45;3.67;;;;;;;;;;10356076;28;20064;-77
2022/05/15 07:50:00;;;;;;;9.13;3.72;;;;;;;;;;10351615;28;20070;-78
2022/05/15 07:55:05;;;;;;;9.73;4.38;;;;;;;;;;10358774;28;20041;-78
2022/05/15 08:00:11;;;;;;;9.00;5.82;;;;;;;;;;10337583;28;20065;-78
2022/05/15 08:10:37;;;;;;;7.13;4.60;;;;;;;;;;10281411;28;20085;-76
2022/05/15 08:15:42;;;;;;;5.93;3.38;;;;;;;;;;10338142;28;20078;-76
2022/05/15 08:26:06;;;;;;;4.55;2.92;;;;;;;;;;10340019;28;20485;-79
2022/05/15 08:31:10;;;;;;;7.07;4.40;;;;;;;;;;10329704;28;20058;-78
2022/05/15 08:36:14;;;;;;;4.32;3.13;;;;;;;;;;10333202;28;20038;-79
2022/05/15 08:41:19;;;;;;;11.73;7.82;;;;;;;;;;10362705;28;20057;-77
2022/05/15 08:46:29;;;;;;;6.60;3.25;;;;;;;;;;10365524;28;20092;-76
2022/05/15 08:51:33;;;;;;;4.15;3.10;;;;;;;;;;10336499;28;20160;-76
2022/05/15 08:56:44;;;;;;;4.63;3.28;;;;;;;;;;10327695;28;20168;-73
2022/05/15 09:01:50;;;;;;;5.95;3.20;;;;;;;;;;10356077;28;20420;-76
2022/05/15 09:07:04;;;;;;;3.70;3.00;;;;;;;;;;10352203;28;20033;-76
2022/05/15 09:12:14;;;;;;;4.50;2.80;;;;;;;;;;10335728;28;20347;-77
2022/05/15 09:17:21;;;;;;;3.33;2.75;;;;;;;;;;10355474;28;20038;-76
2022/05/15 09:22:26;;;;;;;3.28;2.97;;;;;;;;;;10357654;28;20034;-77
2022/05/15 09:27:29;;;;;;;6.13;3.20;;;;;;;;;;10343124;28;20097;-74
2022/05/15 09:32:38;;;;;;;6.57;3.10;;;;;;;;;;10369262;28;20125;-75
2022/05/15 09:48:30;;;;;;;3.58;3.10;;;;;;;;;;10364854;28;20049;-77
2022/05/15 09:53:38;;;;;;;3.72;3.20;;;;;;;;;;10363666;28;20044;-77
2022/05/15 09:58:43;;;;;;;4.00;3.05;;;;;;;;;;10344660;28;20037;-76
2022/05/15 10:03:50;;;;;;;4.15;2.78;;;;;;;;;;10361147;28;20072;-76
2022/05/15 10:09:07;;;;;;;3.38;2.92;;;;;;;;;;10357050;28;20413;-77
2022/05/15 10:14:16;;;;;;;5.83;3.90;;;;;;;;;;10343239;28;20069;-76
2022/05/15 10:19:25;;;;;;;3.40;3.10;;;;;;;;;;10340601;28;20357;-74
2022/05/15 10:24:30;;;;;;;4.80;3.13;;;;;;;;;;10363884;28;20053;-76
2022/05/15 10:29:38;;;;;;;4.15;3.10;;;;;;;;;;10364124;28;20466;-73
2022/05/15 10:34:42;;;;;;;4.18;2.95;;;;;;;;;;10343886;28;20065;-75
2022/05/15 10:39:55;;;;;;;4.07;2.90;;;;;;;;;;10342114;28;20382;-77
2022/05/15 10:45:04;;;;;;;5.50;3.70;;;;;;;;;;10366005;28;20065;-76
2022/05/15 10:50:19;;;;;;;6.00;3.13;;;;;;;;;;10356255;28;20066;-77
2022/05/15 11:00:57;;;;;;;6.47;2.85;;;;;;;;;;10353571;28;20114;-77
2022/05/15 11:06:10;;;;;;;5.38;3.05;;;;;;;;;;10356271;28;20046;-76
2022/05/15 11:11:19;;;;;;;5.65;3.67;;;;;;;;;;10362108;28;20126;-77
2022/05/15 11:16:27;;;;;;;4.18;2.97;;;;;;;;;;10359730;28;20517;-77
2022/05/15 11:21:34;;;;;;;5.15;2.95;;;;;;;;;;10340690;28;20044;-75
2022/05/15 11:26:39;;;;;;;5.93;2.97;;;;;;;;;;10360490;28;20426;-78
2022/05/15 11:31:44;;;;;;;9.07;6.20;;;;;;;;;;10357159;28;20061;-78
2022/05/15 11:36:49;;;;;;;4.88;3.20;;;;;;;;;;10341864;28;20073;-76
2022/05/15 11:42:19;;;;;;;3.88;3.10;;;;;;;;;;10357484;28;20037;-78
2022/05/15 11:47:32;;;;;;;6.28;4.70;;;;;;;;;;10308823;28;20093;-76
2022/05/15 11:52:39;;;;;;;5.28;2.95;;;;;;;;;;10337540;28;20037;-76
2022/05/15 11:57:44;;;;;;;4.65;3.00;;;;;;;;;;10362851;28;20049;-76
2022/05/15 12:02:54;;;;;;;6.63;2.80;;;;;;;;;;10341758;28;20038;-76
2022/05/15 12:08:01;;;;;;;4.82;3.03;;;;;;;;;;10352433;28;20117;-77
2022/05/15 12:13:09;;;;;;;3.60;2.50;;;;;;;;;;10355799;28;20042;-74
2022/05/15 12:18:30;;;;;;;5.28;2.78;;;;;;;;;;10362859;28;20124;-77
2022/05/15 12:23:36;;;;;;;4.72;2.75;;;;;;;;;;10357998;28;20044;-75
2022/05/15 12:28:54;;;;;;;5.07;3.08;;;;;;;;;;10341849;28;20042;-78
2022/05/15 12:34:05;;;;;;;4.78;2.90;;;;;;;;;;10336205;28;20553;-77
2022/05/15 12:39:13;;;;;;;4.20;2.58;;;;;;;;;;10349030;28;20062;-78
2022/05/15 12:44:27;;;;;;;3.63;2.63;;;;;;;;;;10338413;28;20030;-76
2022/05/15 12:49:35;;;;;;;3.88;2.35;;;;;;;;;;10349046;28;20096;-76
2022/05/15 12:54:39;;;;;;;2.88;2.45;;;;;;;;;;10337664;28;20155;-79
2022/05/15 12:59:44;;;;;;;3.08;2.33;;;;;;;;;;10352711;28;20052;-78
2022/05/15 13:04:49;;;;;;;5.97;2.95;;;;;;;;;;10354778;28;20147;-77
2022/05/15 13:10:03;;;;;;;3.33;2.22;;;;;;;;;;10366981;28;20513;-78
2022/05/15 13:15:06;;;;;;;5.25;2.65;;;;;;;;;;10347166;28;20066;-76
2022/05/15 13:20:12;;;;;;;3.78;2.30;;;;;;;;;;10324085;28;20073;-77
2022/05/15 13:25:19;;;;;;;9.27;3.97;;;;;;;;;;10367567;28;20418;-75
2022/05/15 13:30:24;;;;;;;4.00;2.50;;;;;;;;;;10353646;28;20048;-77
2022/05/15 13:35:28;;;;;;;4.15;2.08;;;;;;;;;;10349959;28;20042;-77
2022/05/15 13:46:02;;;;;;;3.03;2.10;;;;;;;;;;10365508;28;20030;-76
2022/05/15 13:51:05;;;;;;;5.97;2.50;;;;;;;;;;10356775;28;20038;-76
2022/05/15 13:56:21;;;;;;;8.85;3.47;;;;;;;;;;10341711;28;20492;-77
2022/05/15 14:01:25;;;;;;;3.95;2.30;;;;;;;;;;10368239;28;20126;-77
2022/05/15 14:06:48;;;;;;;4.00;2.10;;;;;;;;;;10355860;28;20067;-76
2022/05/15 14:11:54;;;;;;;3.45;2.55;;;;;;;;;;10365131;28;20414;-75
2022/05/15 14:17:03;;;;;;;4.57;2.20;;;;;;;;;;10361029;28;20042;-76
2022/05/15 14:22:06;;;;;;;4.32;3.42;;;;;;;;;;10365752;28;20141;-74
2022/05/15 14:27:10;;;;;;;4.32;2.13;;;;;;;;;;10363633;28;20030;-78
2022/05/15 14:32:18;;;;;;;4.35;2.40;;;;;;;;;;10358117;28;20091;-77
2022/05/15 14:37:21;;;;;;;3.03;1.83;;;;;;;;;;10359980;28;20037;-78
2022/05/15 14:42:27;;;;;;;5.00;2.40;;;;;;;;;;10365118;28;20082;-76
2022/05/15 14:47:32;;;;;;;3.15;2.28;;;;;;;;;;10335305;28;20073;-77
2022/05/15 14:52:35;;;;;;;3.35;2.20;;;;;;;;;;10352741;28;20102;-75
2022/05/15 14:57:40;;;;;;;4.93;3.03;;;;;;;;;;10356971;28;20050;-75
2022/05/15 15:02:43;;;;;;;2.95;1.80;;;;;;;;;;10363388;28;20038;-76
2022/05/15 15:07:46;;;;;;;6.82;2.22;;;;;;;;;;10363518;28;20037;-78
2022/05/15 15:12:50;;;;;;;6.57;2.20;;;;;;;;;;10356845;28;20042;-77
2022/05/15 15:17:53;;;;;;;2.85;2.30;;;;;;;;;;10353979;28;20034;-76
2022/05/15 15:22:55;;;;;;;3.35;2.03;;;;;;;;;;10336510;28;20046;-77
2022/05/15 15:28:00;;;;;;;3.88;2.20;;;;;;;;;;10354862;28;20534;-77
2022/05/15 15:33:04;;;;;;;4.38;2.20;;;;;;;;;;10357338;28;20478;-76
2022/05/15 15:38:15;;;;;;;3.55;2.17;;;;;;;;;;10342117;28;20378;-75
2022/05/15 15:43:25;;;;;;;3.70;1.80;;;;;;;;;;10337618;28;20451;-78
2022/05/15 15:48:28;;;;;;;3.92;1.98;;;;;;;;;;10339431;28;20178;-77
2022/05/15 15:53:30;;;;;;;3.28;1.88;;;;;;;;;;10355069;28;20042;-77
2022/05/15 15:58:34;;;;;;;6.47;2.40;;;;;;;;;;10355621;28;20045;-77
2022/05/15 16:03:37;;;;;;;2.45;1.83;;;;;;;;;;10339927;28;20085;-76
2022/05/15 16:08:40;;;;;;;10.70;5.18;;;;;;;;;;10339389;28;20073;-76
2022/05/15 16:13:44;;;;;;;4.90;2.30;;;;;;;;;;10335524;28;20037;-78
2022/05/15 16:18:48;;;;;;;3.75;2.08;;;;;;;;;;10351776;28;20042;-77
2022/05/15 16:23:52;;;;;;;3.25;1.98;;;;;;;;;;10353439;28;20037;-75
2022/05/15 16:28:58;;;;;;;4.00;1.98;;;;;;;;;;10356084;28;20038;-76
2022/05/15 16:34:02;;;;;;;3.45;2.25;;;;;;;;;;10351604;28;20456;-75
2022/05/15 16:39:05;;;;;;;4.38;2.20;;;;;;;;;;10352231;28;20505;-74
2022/05/15 16:44:10;;;;;;;3.10;2.05;;;;;;;;;;10365313;28;20091;-75
2022/05/15 16:49:17;;;;;;;4.82;2.33;;;;;;;;;;10364401;28;20479;-77
2022/05/15 16:54:19;;;;;;;;;;;;;;;;;;10356734;28;20521;-78
2022/05/15 16:59:24;;;;;;;7.53;2.07;;;;;;;;;;10363065;28;20402;-77
2022/05/15 17:04:26;;;;;;;5.05;1.75;;;;;;;;;;10345744;28;20439;-77
2022/05/15 17:09:29;;;;;;;3.13;1.73;;;;;;;;;;10340312;28;20470;-77
2022/05/15 17:14:33;;;;;;;4.85;1.88;;;;;;;;;;10360148;28;20038;-74
2022/05/15 17:19:36;;;;;;;4.63;1.90;;;;;;;;;;10353719;28;20041;-77
2022/05/15 17:24:39;;;;;;;4.57;1.70;;;;;;;;;;10358847;28;20050;-76
2022/05/15 17:35:05;;;;;;;3.55;1.73;;;;;;;;;;10373096;28;20071;-79
2022/05/15 17:40:11;;;;;;;4.50;2.00;;;;;;;;;;10379769;28;20064;-79
2022/05/15 17:45:16;;;;;;;2.28;1.95;;;;;;;;;;10353592;28;20545;-76
2022/05/15 17:50:21;;;;;;;6.20;1.83;;;;;;;;;;10364428;28;20041;-77
2022/05/15 17:55:24;;;;;;;5.20;1.83;;;;;;;;;;10370091;28;20058;-77
2022/05/15 18:00:31;;;;;;;6.03;2.50;;;;;;;;;;10369150;28;20095;-75
2022/05/15 18:05:35;;;;;;;5.03;1.90;;;;;;;;;;10367470;28;20038;-78
2022/05/15 18:10:38;;;;;;;2.67;2.00;;;;;;;;;;10349184;28;20100;-77
2022/05/15 18:15:43;;;;;;;3.20;2.10;;;;;;;;;;10374688;28;20030;-74
2022/05/15 18:20:46;;;;;;;4.32;2.30;;;;;;;;;;10345551;28;20069;-76
2022/05/15 18:25:49;;;;;;;;;;;;;;;;;;10340786;28;20066;-74
2022/05/15 18:30:55;;;;;;;3.60;2.37;;;;;;;;;;10351854;28;20020;-74
2022/05/15 18:35:58;;;;;;;3.38;2.35;;;;;;;;;;10344276;28;20050;-76
2022/05/15 18:41:02;;;;;;;5.07;2.50;;;;;;;;;;10345269;28;20037;-75
2022/05/15 18:46:06;;;;;;;5.20;2.20;;;;;;;;;;10346487;28;20498;-74
2022/05/15 18:56:30;;;;;;;6.80;2.50;;;;;;;;;;10351286;28;21922;-76
2022/05/15 19:01:36;;;;;;;6.30;2.33;;;;;;;;;;10359800;28;20513;-75
2022/05/15 19:06:39;;;;;;;3.78;2.17;;;;;;;;;;10340976;28;20045;-75
2022/05/15 19:11:43;;;;;;;4.18;2.25;;;;;;;;;;10360347;28;20049;-74
2022/05/15 19:16:47;;;;;;;4.68;2.88;;;;;;;;;;10358786;28;20317;-74
2022/05/15 19:21:50;;;;;;;4.28;2.50;;;;;;;;;;10342176;28;20562;-75
2022/05/15 19:26:54;;;;;;;8.65;3.08;;;;;;;;;;10352269;28;20034;-75
2022/05/15 19:31:59;;;;;;;5.47;2.72;;;;;;;;;;10358429;28;20176;-75
2022/05/15 19:37:02;;;;;;;7.35;2.97;;;;;;;;;;10339664;28;20045;-76
2022/05/15 19:42:06;;;;;;;7.20;2.65;;;;;;;;;;10356742;28;20088;-73
2022/05/15 19:47:10;;;;;;;4.35;2.70;;;;;;;;;;10339726;28;20117;-75
2022/05/15 19:52:13;;;;;;;5.63;2.92;;;;;;;;;;10358743;28;20411;-74
2022/05/15 19:57:17;;;;;;;5.25;2.65;;;;;;;;;;10358315;28;20104;-73
2022/05/15 20:02:21;;;;;;;7.72;3.17;;;;;;;;;;10343521;28;20096;-77
2022/05/15 20:13:05;;;;;;;9.05;3.80;;;;;;;;;;10355619;28;20034;-77
2022/05/15 20:18:09;;;;;;;10.60;4.50;;;;;;;;;;10339214;28;20096;-74
2022/05/15 20:23:12;;;;;;;7.00;3.30;;;;;;;;;;10358209;28;20050;-74
2022/05/15 20:28:15;;;;;;;7.32;3.20;;;;;;;;;;10353323;28;20116;-77
2022/05/15 20:33:21;;;;;;;6.10;2.77;;;;;;;;;;10338809;28;20069;-75
2022/05/15 20:38:24;;;;;;;4.43;2.83;;;;;;;;;;10358405;28;20312;-77
2022/05/15 20:43:27;;;;;;;17.08;8.88;;;;;;;;;;10357212;28;20069;-78
2022/05/15 20:48:32;;;;;;;10.05;3.70;;;;;;;;;;10358929;28;20530;-76
2022/05/15 20:53:36;;;;;;;6.00;2.65;;;;;;;;;;10336087;28;20070;-75
2022/05/15 20:58:38;;;;;;;;;;;;;;;;;;10339191;28;20077;-77
2022/05/15 21:03:43;;;;;;;6.30;3.30;;;;;;;;;;10345068;28;19950;-76
2022/05/15 21:08:46;;;;;;;8.43;3.30;;;;;;;;;;10358130;28;20084;-76
2022/05/15 21:13:50;;;;;;;8.90;3.50;;;;;;;;;;10335448;28;20449;-75
2022/05/15 21:18:52;;;;;;;;;;;;;;;;;;10360152;28;20037;-75
2022/05/15 21:23:57;;;;;;;4.97;2.58;;;;;;;;;;10337066;28;20012;-74
2022/05/15 21:29:00;;;;;;;6.95;2.70;;;;;;;;;;10344492;28;20506;-73
2022/05/15 21:34:03;;;;;;;32.67;12.82;;;;;;;;;;10365954;28;20030;-76
2022/05/15 21:44:28;;;;;;;9.00;3.67;;;;;;;;;;10344089;28;20125;-76
2022/05/15 21:49:32;;;;;;;5.03;3.15;;;;;;;;;;10361373;28;20041;-76
2022/05/15 21:54:37;;;;;;;8.98;3.10;;;;;;;;;;10367000;28;20525;-76
2022/05/15 22:05:00;;;;;;;9.07;3.85;;;;;;;;;;10345370;28;20065;-75
2022/05/15 22:10:06;;;;;;;6.63;3.60;;;;;;;;;;10369276;28;20149;-75
2022/05/15 22:15:10;;;;;;;5.97;3.20;;;;;;;;;;10343655;28;20163;-76
2022/05/15 22:20:13;;;;;;;6.78;3.35;;;;;;;;;;10366469;28;20044;-76
2022/05/15 22:25:18;;;;;;;6.00;3.50;;;;;;;;;;10363281;28;20129;-77
2022/05/15 22:30:22;;;;;;;4.80;3.08;;;;;;;;;;10363687;28;20042;-75
2022/05/15 22:35:25;;;;;;;8.33;3.77;;;;;;;;;;10359257;28;20081;-76
2022/05/15 22:40:29;;;;;;;7.73;3.53;;;;;;;;;;10367285;28;20144;-75
2022/05/15 22:45:32;;;;;;;6.72;3.33;;;;;;;;;;10365331;28;20041;-73
2022/05/15 22:50:41;;;;;;;5.10;3.22;;;;;;;;;;10347406;28;20482;-77
2022/05/15 22:55:46;;;;;;;6.57;3.47;;;;;;;;;;10343777;28;20548;-78
2022/05/15 23:00:48;;;;;;;6.00;3.50;;;;;;;;;;10347536;28;20065;-76
2022/05/15 23:11:13;;;;;;;5.35;3.28;;;;;;;;;;10359377;28;20038;-76
2022/05/15 23:16:18;;;;;;;8.15;3.47;;;;;;;;;;10361577;28;20033;-76
2022/05/15 23:21:21;;;;;;;9.35;3.90;;;;;;;;;;10364515;28;20040;-74
2022/05/15 23:26:25;;;;;;;6.90;3.78;;;;;;;;;;10362406;28;20034;-75
2022/05/15 23:31:30;;;;;;;8.88;3.75;;;;;;;;;;10366711;28;20134;-75
2022/05/15 23:36:36;;;;;;;5.35;3.58;;;;;;;;;;10363761;28;20037;-76
2022/05/15 23:41:40;;;;;;;7.03;3.92;;;;;;;;;;10361547;28;20092;-76
2022/05/15 23:46:43;;;;;;;7.50;4.10;;;;;;;;;;10359158;28;20038;-76
2022/05/15 23:51:46;;;;;;;5.40;3.88;;;;;;;;;;10360082;28;20126;-74
2022/05/15 23:56:50;;;;;;;8.20;3.97;;;;;;;;;;10357307;28;20092;-75
